LIBF/FOG METAR and TAF weather

Enter ICAO airport designator
Station Type Date Time Source
LIBF METAR 2020/01/18 14:50 UTC NOAA

LIBF 181450Z 24008KT 9999 FEW030 SCT060 12/04 Q1018


Station Type Date Time Source
LIBF Decoded METAR 2020/01/18 14:50 UTC NOAA

Station name not available
Jan 18, 2020 - 09:50 AM EST / 2020.01.18 1450 UTC
Wind: from the WSW (240 degrees) at 9 MPH (8 KT):0
Visibility: greater than 7 mile(s):0
Sky conditions: partly cloudy
Temperature: 53 F (12 C)
Dew Point: 39 F (4 C)
Relative Humidity: 57%
Pressure (altimeter): 30.06 in. Hg (1018 hPa)
ob: LIBF 181450Z 24008KT 9999 FEW030 SCT060 12/04 Q1018
cycle: 15

Station Type Date Time Source
LIBF TAF 2015/04/03 06:00 UTC NOAA

TAF LIBF 030500Z 0306/0406 35014KT 9999 FEW030

Example: see airport list